Time;durP1;ratioP1;P1;durP2;ratioP2;P2;SDS_P1;SDS_P2;PMS_P1;PMS_P2;Temp;Humidity;BMP_temperature;BMP_pressure;BME280_temperature;BME280_humidity;BME280_pressure;Samples;Min_cycle;Max_cycle;Signal;HPM_P1;HPM_P2
2022/11/06 00:00:34;;;;;;;12.60;8.30;;;4.20;84.10;;;;;;5029759;28;20486;-53
2022/11/06 00:03:01;;;;;;;14.47;8.37;;;4.20;84.20;;;;;;5031809;28;20917;-52
2022/11/06 00:08:13;;;;;;;11.83;8.27;;;4.10;84.00;;;;;;5030932;28;21211;-52
2022/11/06 00:10:40;;;;;;;8.70;7.53;;;4.10;84.20;;;;;;5030945;28;20463;-52
2022/11/06 00:13:06;;;;;;;19.33;9.27;;;4.10;84.30;;;;;;5032552;28;20470;-52
2022/11/06 00:15:34;;;;;;;12.77;9.10;;;4.00;84.30;;;;;;5029626;28;20510;-53
2022/11/06 00:18:01;;;;;;;14.23;9.63;;;4.00;84.50;;;;;;5028481;28;20486;-53
2022/11/06 00:20:27;;;;;;;14.87;9.93;;;4.10;84.40;;;;;;5029375;28;20510;-53
2022/11/06 00:22:54;;;;;;;14.37;8.77;;;4.00;84.50;;;;;;5031753;28;20540;-53
2022/11/06 00:25:20;;;;;;;12.23;7.93;;;4.00;84.50;;;;;;5030547;28;20519;-52
2022/11/06 00:27:47;;;;;;;11.93;8.87;;;4.00;84.50;;;;;;5032219;28;20490;-53
2022/11/06 00:30:14;;;;;;;12.70;8.30;;;4.00;84.70;;;;;;5033019;28;20470;-53
2022/11/06 00:32:41;;;;;;;12.00;9.23;;;4.00;84.60;;;;;;5031128;28;20501;-53
2022/11/06 00:35:08;;;;;;;9.53;8.40;;;4.00;84.80;;;;;;5028742;28;20556;-52
2022/11/06 00:37:35;;;;;;;15.50;8.53;;;3.90;84.70;;;;;;5031715;28;20971;-53
2022/11/06 00:40:03;;;;;;;15.43;9.80;;;3.90;85.30;;;;;;5032177;28;20459;-53
2022/11/06 00:42:29;;;;;;;12.07;8.23;;;3.90;85.20;;;;;;5028430;28;20495;-53
2022/11/06 00:44:56;;;;;;;9.13;8.23;;;3.90;85.20;;;;;;5031476;28;20536;-52
2022/11/06 00:47:23;;;;;;;11.13;8.83;;;3.90;85.50;;;;;;5027142;28;20492;-51
2022/11/06 00:49:51;;;;;;;13.83;8.33;;;3.90;85.00;;;;;;5030539;28;21010;-52
2022/11/06 00:52:17;;;;;;;12.60;9.10;;;3.90;85.30;;;;;;5031882;28;20862;-51
2022/11/06 00:54:44;;;;;;;11.20;8.07;;;3.90;84.90;;;;;;5028097;28;20510;-51
2022/11/06 00:57:11;;;;;;;10.30;8.50;;;3.90;85.40;;;;;;5031202;28;20491;-52
2022/11/06 00:59:37;;;;;;;16.53;8.90;;;4.00;85.30;;;;;;5029984;28;20465;-51
2022/11/06 01:02:04;;;;;;;12.13;7.53;;;4.00;84.70;;;;;;5026343;28;21082;-51
2022/11/06 01:04:30;;;;;;;10.13;7.50;;;4.00;84.80;;;;;;5031858;28;21077;-52
2022/11/06 01:06:58;;;;;;;10.17;7.73;;;4.00;85.00;;;;;;5030223;28;20983;-51
2022/11/06 01:09:27;;;;;;;9.03;7.23;;;4.00;84.80;;;;;;5027157;28;21090;-51
2022/11/06 01:11:56;;;;;;;8.97;7.53;;;4.00;84.60;;;;;;5029977;28;20459;-52
2022/11/06 01:14:24;;;;;;;14.00;7.30;;;4.00;85.00;;;;;;5026369;28;20526;-51
2022/11/06 01:16:50;;;;;;;15.23;8.20;;;4.00;85.20;;;;;;5029681;28;20552;-51
2022/11/06 01:19:20;;;;;;;11.53;8.00;;;4.00;85.10;;;;;;5029984;28;20498;-51
2022/11/06 01:21:48;;;;;;;10.33;8.10;;;4.00;85.20;;;;;;5030492;28;20522;-51
2022/11/06 01:24:19;;;;;;;11.73;8.20;;;4.00;85.30;;;;;;5030881;28;20905;-51
2022/11/06 01:26:46;;;;;;;13.57;7.90;;;4.00;85.20;;;;;;5030890;28;20506;-52
2022/11/06 01:29:15;;;;;;;22.20;7.67;;;4.00;85.80;;;;;;5027046;28;20467;-52
2022/11/06 01:31:42;;;;;;;15.07;8.13;;;4.00;85.80;;;;;;5026588;28;20486;-51
2022/11/06 01:34:10;;;;;;;10.07;8.10;;;4.00;83.70;;;;;;5029994;28;20901;-51
2022/11/06 01:36:37;;;;;;;9.57;6.67;;;4.00;85.60;;;;;;5025280;28;20487;-51
2022/11/06 01:39:05;;;;;;;12.63;6.93;;;4.00;85.40;;;;;;5029131;28;20503;-52
2022/11/06 01:41:36;;;;;;;17.27;7.53;;;4.10;85.40;;;;;;5029134;28;20483;-52
2022/11/06 01:44:04;;;;;;;10.23;6.27;;;4.20;86.20;;;;;;5029887;28;21089;-52
2022/11/06 01:46:34;;;;;;;14.97;7.33;;;4.30;84.90;;;;;;5029643;28;20494;-52
2022/11/06 01:49:05;;;;;;;11.07;6.10;;;4.30;84.60;;;;;;5026692;28;20466;-52
2022/11/06 01:51:37;;;;;;;9.27;5.53;;;4.40;84.30;;;;;;5025788;28;20491;-52
2022/11/06 01:54:05;;;;;;;8.93;5.60;;;4.50;84.60;;;;;;5030291;28;20518;-51
2022/11/06 01:56:34;;;;;;;8.37;5.30;;;4.50;83.70;;;;;;5029612;28;21050;-51
2022/11/06 01:59:03;;;;;;;7.47;5.37;;;4.50;81.80;;;;;;5028678;28;20537;-51
2022/11/06 02:01:29;;;;;;;11.13;6.10;;;4.60;82.50;;;;;;5027745;28;20553;-51
2022/11/06 02:04:00;;;;;;;7.67;5.93;;;4.70;81.30;;;;;;5022311;28;20512;-52
2022/11/06 02:06:28;;;;;;;13.87;6.83;;;4.80;80.90;;;;;;5029118;28;20486;-51
2022/11/06 02:08:54;;;;;;;7.37;5.93;;;4.80;80.30;;;;;;5028422;28;20490;-51
2022/11/06 02:11:21;;;;;;;19.63;6.13;;;4.80;79.30;;;;;;5029826;28;20495;-51
2022/11/06 02:14:01;;;;;;;10.50;5.27;;;4.80;78.50;;;;;;5029899;28;20514;-51
2022/11/06 02:16:37;;;;;;;9.90;5.53;;;4.80;77.70;;;;;;5027340;28;20513;-51
2022/11/06 02:19:19;;;;;;;9.50;5.13;;;4.90;77.10;;;;;;5029028;28;20457;-51
2022/11/06 02:22:03;;;;;;;7.60;4.90;;;4.80;77.40;;;;;;5026121;28;20506;-52
2022/11/06 02:24:55;;;;;;;6.10;4.83;;;4.90;78.00;;;;;;5028463;28;20510;-52
2022/11/06 02:27:24;;;;;;;6.23;5.50;;;4.80;78.00;;;;;;5017106;28;20502;-52
2022/11/06 02:29:58;;;;;;;12.23;5.30;;;4.80;78.00;;;;;;5031253;28;20486;-51
2022/11/06 02:32:33;;;;;;;7.90;5.33;;;4.80;78.60;;;;;;5029807;28;20549;-52
2022/11/06 02:35:04;;;;;;;8.33;5.80;;;4.80;78.60;;;;;;5025212;28;20522;-51
2022/11/06 02:37:36;;;;;;;8.63;5.53;;;4.80;79.10;;;;;;5025502;28;20469;-52
2022/11/06 02:40:07;;;;;;;9.43;5.20;;;4.70;79.30;;;;;;5029011;28;20482;-51
2022/11/06 02:42:38;;;;;;;7.10;5.00;;;4.70;79.60;;;;;;5030190;28;20581;-52
2022/11/06 02:45:07;;;;;;;10.73;5.60;;;4.80;79.70;;;;;;5028197;28;20479;-52
2022/11/06 02:47:35;;;;;;;13.80;7.07;;;4.80;79.50;;;;;;5027149;28;20463;-51
2022/11/06 02:50:06;;;;;;;8.03;5.37;;;4.80;78.90;;;;;;5028617;28;21054;-52
2022/11/06 02:52:38;;;;;;;10.33;5.80;;;4.80;78.50;;;;;;5030369;28;20458;-51
2022/11/06 02:55:10;;;;;;;7.53;5.40;;;4.90;78.20;;;;;;5026182;28;20502;-51
2022/11/06 02:57:43;;;;;;;10.03;5.93;;;4.90;78.30;;;;;;5028035;28;20502;-51
2022/11/06 03:00:12;;;;;;;9.50;5.30;;;4.90;78.10;;;;;;5029582;28;20513;-51
2022/11/06 03:02:43;;;;;;;9.27;6.20;;;4.80;78.00;;;;;;5026493;28;20514;-52
2022/11/06 03:05:15;;;;;;;9.23;5.40;;;4.90;78.00;;;;;;5028132;28;21101;-52
2022/11/06 03:07:47;;;;;;;8.40;5.93;;;4.90;77.60;;;;;;5021155;28;20486;-51
2022/11/06 03:10:14;;;;;;;9.43;5.90;;;4.90;77.80;;;;;;5030362;28;20517;-51
2022/11/06 03:12:51;;;;;;;7.90;5.60;;;4.80;78.70;;;;;;5027880;28;20540;-51
2022/11/06 03:15:23;;;;;;;6.30;5.00;;;4.80;78.70;;;;;;5029434;28;20513;-51
2022/11/06 03:17:59;;;;;;;9.50;5.73;;;4.90;78.90;;;;;;5029144;28;20538;-52
2022/11/06 03:20:31;;;;;;;7.43;5.60;;;4.90;79.40;;;;;;5022678;28;20494;-52
2022/11/06 03:23:03;;;;;;;6.33;5.50;;;4.80;79.30;;;;;;5029048;28;20519;-51
2022/11/06 03:25:35;;;;;;;8.77;6.30;;;4.80;79.40;;;;;;5028418;28;20515;-51
2022/11/06 03:28:07;;;;;;;6.90;5.77;;;4.80;77.90;;;;;;5028081;28;20494;-52
2022/11/06 03:30:37;;;;;;;10.60;5.37;;;4.80;79.70;;;;;;5028148;28;20499;-51
2022/11/06 03:33:13;;;;;;;12.20;5.73;;;4.80;80.10;;;;;;5028883;28;20504;-52
2022/11/06 03:35:44;;;;;;;6.60;5.20;;;4.70;80.10;;;;;;5029615;28;20940;-52
2022/11/06 03:38:14;;;;;;;6.23;5.63;;;4.80;80.10;;;;;;5029766;28;20494;-51
2022/11/06 03:40:44;;;;;;;8.83;6.10;;;4.80;80.60;;;;;;5022853;28;20508;-52
2022/11/06 03:43:15;;;;;;;9.23;5.97;;;4.70;80.70;;;;;;5029562;28;20521;-51
2022/11/06 03:45:44;;;;;;;9.10;6.10;;;4.70;81.20;;;;;;5028845;28;20984;-51
2022/11/06 03:48:18;;;;;;;6.90;5.87;;;4.60;81.80;;;;;;5027766;28;20877;-52
2022/11/06 03:50:50;;;;;;;5.57;5.00;;;4.60;82.20;;;;;;5028487;28;20979;-51
2022/11/06 03:53:23;;;;;;;6.73;5.30;;;4.50;83.30;;;;;;5022441;28;20456;-51
2022/11/06 03:55:53;;;;;;;7.13;5.23;;;4.40;84.00;;;;;;5030448;28;20536;-52
2022/11/06 03:58:25;;;;;;;5.83;5.07;;;4.30;85.50;;;;;;5026927;28;20471;-52
2022/11/06 04:00:54;;;;;;;7.67;5.00;;;4.20;87.00;;;;;;5026513;28;20494;-52
2022/11/06 04:03:26;;;;;;;12.93;6.87;;;4.10;87.80;;;;;;5031808;28;20521;-52
2022/11/06 04:05:57;;;;;;;8.40;5.57;;;4.10;88.60;;;;;;5032000;28;20459;-52
2022/11/06 04:14:04;;;;;;;11.90;5.93;;;3.90;89.30;;;;;;5031307;28;20492;-52
2022/11/06 04:16:35;;;;;;;8.40;5.83;;;3.90;89.40;;;;;;5031508;28;20492;-52
2022/11/06 04:19:02;;;;;;;8.50;5.33;;;3.90;89.70;;;;;;5032614;28;20493;-52
2022/11/06 04:21:42;;;;;;;11.53;6.60;;;3.90;89.70;;;;;;5029512;28;20585;-52
2022/11/06 04:27:16;;;;;;;9.40;6.43;;;3.90;89.30;;;;;;5027716;28;20453;-52
2022/11/06 04:29:55;;;;;;;10.50;6.33;;;3.90;88.90;;;;;;5029903;28;20459;-52
2022/11/06 04:32:30;;;;;;;8.53;6.03;;;3.90;88.50;;;;;;5029689;28;20544;-52
2022/11/06 04:35:03;;;;;;;12.13;7.60;;;4.00;87.70;;;;;;5026400;28;20521;-53
2022/11/06 04:37:36;;;;;;;6.70;6.00;;;4.10;86.90;;;;;;5031710;28;20498;-50
2022/11/06 04:40:09;;;;;;;8.47;7.20;;;4.10;86.50;;;;;;5032276;28;20990;-50
2022/11/06 04:42:42;;;;;;;9.03;6.00;;;4.10;86.50;;;;;;5027722;28;20518;-50
2022/11/06 04:45:17;;;;;;;6.47;5.87;;;4.10;86.70;;;;;;5031529;28;20514;-50
2022/11/06 04:47:45;;;;;;;8.23;6.00;;;4.00;86.80;;;;;;5029976;28;20489;-50
2022/11/06 04:50:14;;;;;;;12.17;6.70;;;3.90;87.00;;;;;;5030890;28;21091;-50
2022/11/06 04:52:43;;;;;;;8.67;6.17;;;3.90;87.90;;;;;;5026611;28;20490;-51
2022/11/06 04:55:09;;;;;;;7.30;5.93;;;3.90;88.90;;;;;;5027157;28;20507;-51
2022/11/06 04:57:36;;;;;;;8.50;6.27;;;3.90;88.80;;;;;;5032415;28;20570;-51
2022/11/06 05:00:03;;;;;;;7.70;6.20;;;3.80;89.00;;;;;;5030995;28;20502;-50
2022/11/06 05:02:31;;;;;;;6.43;5.93;;;3.80;89.40;;;;;;5030006;28;20484;-50
2022/11/06 05:04:58;;;;;;;6.37;5.77;;;3.90;89.60;;;;;;5028953;28;21366;-50
2022/11/06 05:07:24;;;;;;;12.17;6.63;;;4.00;89.20;;;;;;5029389;28;21026;-50
2022/11/06 05:09:51;;;;;;;11.43;8.10;;;4.10;89.20;;;;;;5030277;28;20494;-51
2022/11/06 05:12:17;;;;;;;10.27;7.43;;;4.10;88.70;;;;;;5030049;28;20500;-50
2022/11/06 05:14:44;;;;;;;10.30;6.83;;;4.10;88.90;;;;;;5027515;28;20517;-50
2022/11/06 05:17:11;;;;;;;12.13;7.50;;;4.10;89.00;;;;;;5029894;28;20984;-51
2022/11/06 05:19:39;;;;;;;10.87;7.67;;;4.10;88.90;;;;;;5030439;28;20502;-51
2022/11/06 05:24:49;;;;;;;10.50;6.40;;;4.10;89.40;;;;;;5022147;28;20892;-50
2022/11/06 05:27:16;;;;;;;9.60;6.30;;;4.00;89.40;;;;;;5028512;28;20494;-51
2022/11/06 05:29:43;;;;;;;10.73;6.90;;;4.00;89.40;;;;;;5030077;28;20490;-50
2022/11/06 05:32:09;;;;;;;10.43;6.00;;;3.90;89.10;;;;;;5027982;28;20831;-51
2022/11/06 05:34:36;;;;;;;8.60;6.53;;;3.80;89.90;;;;;;5026578;28;20522;-51
2022/11/06 05:37:04;;;;;;;6.60;5.80;;;3.80;90.50;;;;;;5027692;28;20490;-53
2022/11/06 05:39:30;;;;;;;17.53;6.83;;;3.70;90.40;;;;;;5031253;28;20503;-52
2022/11/06 05:41:57;;;;;;;9.27;6.57;;;3.60;91.40;;;;;;5029242;28;20518;-51
2022/11/06 05:44:23;;;;;;;9.20;7.03;;;3.50;91.70;;;;;;5031066;28;20521;-50
2022/11/06 05:46:50;;;;;;;10.37;7.33;;;3.50;92.60;;;;;;5028400;28;20558;-52
2022/11/06 05:49:17;;;;;;;8.97;6.23;;;3.40;93.80;;;;;;5029013;28;20585;-51
2022/11/06 05:51:44;;;;;;;7.57;5.97;;;3.30;94.70;;;;;;5029113;28;20848;-50
2022/11/06 05:54:12;;;;;;;7.67;6.37;;;3.30;95.60;;;;;;5027360;28;21086;-51
2022/11/06 05:56:38;;;;;;;8.00;5.90;;;3.20;96.10;;;;;;5027782;28;20493;-50
2022/11/06 05:59:05;;;;;;;7.70;6.40;;;3.30;96.90;;;;;;5031721;28;20995;-50
2022/11/06 06:01:31;;;;;;;5.97;5.43;;;3.20;97.10;;;;;;5028622;28;20576;-50
2022/11/06 06:03:58;;;;;;;6.97;6.13;;;3.10;96.90;;;;;;5028348;28;20576;-51
2022/11/06 06:06:25;;;;;;;7.53;6.83;;;3.10;97.90;;;;;;5029016;28;20545;-51
2022/11/06 06:08:51;;;;;;;8.90;6.40;;;3.10;97.50;;;;;;5029470;28;20509;-51
2022/11/06 06:11:19;;;;;;;8.73;5.77;;;3.20;98.60;;;;;;5029676;28;20968;-50
2022/11/06 06:13:47;;;;;;;7.93;6.33;;;3.30;99.20;;;;;;5023043;28;20510;-50
2022/11/06 06:16:13;;;;;;;8.67;6.33;;;3.30;98.60;;;;;;5028438;28;20455;-51
2022/11/06 06:18:40;;;;;;;7.57;6.77;;;3.50;99.80;;;;;;5031369;28;20502;-51
2022/11/06 06:21:06;;;;;;;10.10;6.30;;;3.60;99.40;;;;;;5027455;28;20922;-51
2022/11/06 06:23:33;;;;;;;9.40;6.80;;;3.60;99.20;;;;;;5028893;28;20525;-50
2022/11/06 06:25:59;;;;;;;6.87;5.80;;;3.70;98.90;;;;;;5030534;28;20557;-51
2022/11/06 06:28:27;;;;;;;11.50;7.20;;;3.80;98.90;;;;;;5029722;28;20540;-50
2022/11/06 06:30:54;;;;;;;10.27;6.80;;;3.80;98.40;;;;;;5029094;28;20544;-51
2022/11/06 06:33:20;;;;;;;7.97;6.20;;;3.80;99.40;;;;;;5028989;28;20487;-52
2022/11/06 06:35:47;;;;;;;8.33;7.43;;;3.80;98.10;;;;;;5030800;28;20494;-50
2022/11/06 06:38:14;;;;;;;8.07;6.70;;;3.90;97.70;;;;;;5030747;28;20498;-51
2022/11/06 06:40:40;;;;;;;9.83;6.33;;;3.90;97.50;;;;;;5029955;28;20532;-51
2022/11/06 06:43:07;;;;;;;9.10;6.50;;;3.90;97.60;;;;;;5027719;28;20526;-51
2022/11/06 06:45:35;;;;;;;9.83;6.50;;;3.90;97.20;;;;;;5028743;28;20479;-50
2022/11/06 06:48:02;;;;;;;10.73;6.50;;;4.00;97.70;;;;;;5027019;28;20500;-50
2022/11/06 06:50:29;;;;;;;8.93;7.10;;;4.00;96.80;;;;;;5027786;28;20875;-50
2022/11/06 06:52:56;;;;;;;10.03;6.03;;;4.10;96.30;;;;;;5027254;28;20478;-50
2022/11/06 06:55:23;;;;;;;11.03;6.73;;;4.10;96.10;;;;;;5029296;28;20572;-50
2022/11/06 06:57:55;;;;;;;12.80;6.67;;;4.20;95.90;;;;;;5029318;28;20548;-51
2022/11/06 07:00:22;;;;;;;9.93;6.00;;;4.20;95.50;;;;;;5026976;28;20987;-52
2022/11/06 07:02:50;;;;;;;7.03;6.30;;;4.30;94.90;;;;;;5026599;28;20505;-50
2022/11/06 07:05:17;;;;;;;18.30;6.60;;;4.40;93.70;;;;;;5028873;28;20537;-49
2022/11/06 07:07:43;;;;;;;10.37;6.23;;;4.50;91.60;;;;;;5028460;28;20973;-51
2022/11/06 07:10:10;;;;;;;11.87;6.67;;;5.00;84.90;;;;;;5030493;28;20491;-50
2022/11/06 07:12:36;;;;;;;12.83;7.73;;;5.10;79.30;;;;;;5026721;28;20502;-50
2022/11/06 07:15:04;;;;;;;8.00;6.53;;;5.30;77.50;;;;;;5029824;28;20528;-50
2022/11/06 07:17:30;;;;;;;10.57;6.97;;;5.20;75.70;;;;;;5027949;28;20552;-49
2022/11/06 07:19:58;;;;;;;10.53;6.87;;;5.20;76.00;;;;;;5027705;28;20489;-51
2022/11/06 07:22:26;;;;;;;13.97;7.67;;;5.40;76.00;;;;;;5028582;28;20525;-50
2022/11/06 07:24:52;;;;;;;11.00;6.47;;;5.90;74.70;;;;;;5023948;28;20510;-51
2022/11/06 07:27:19;;;;;;;12.50;6.97;;;6.70;74.80;;;;;;5029316;28;20528;-50
2022/11/06 07:29:46;;;;;;;11.43;6.40;;;7.10;99.90;;;;;;5029088;28;20517;-50
2022/11/06 07:32:12;;;;;;;14.93;7.33;;;7.10;99.90;;;;;;5031403;28;20875;-51
2022/11/06 07:34:39;;;;;;;9.67;6.90;;;7.10;99.90;;;;;;5031477;28;20544;-50
2022/11/06 07:37:07;;;;;;;8.83;5.77;;;7.00;99.90;;;;;;5029257;28;20487;-51
2022/11/06 07:39:34;;;;;;;10.87;6.27;;;7.00;99.90;;;;;;5034101;28;20978;-51
2022/11/06 07:42:00;;;;;;;8.37;6.00;;;7.10;99.90;;;;;;5029254;28;20490;-51
2022/11/06 07:44:27;;;;;;;7.73;6.47;;;7.50;99.90;;;;;;5034682;28;20537;-51
2022/11/06 07:46:54;;;;;;;17.33;6.90;;;7.10;99.90;;;;;;5032839;28;20501;-51
2022/11/06 07:49:20;;;;;;;6.90;6.23;;;7.00;99.90;;;;;;5029007;28;20486;-51
2022/11/06 07:51:47;;;;;;;7.23;6.20;;;7.00;99.90;;;;;;5031540;28;20968;-51
2022/11/06 07:54:15;;;;;;;9.20;6.80;;;7.10;99.90;;;;;;5032885;28;20567;-52
2022/11/06 07:56:41;;;;;;;10.73;5.87;;;7.60;99.90;;;;;;5028781;28;20490;-51
2022/11/06 07:59:08;;;;;;;7.00;5.57;;;8.10;99.90;;;;;;5031773;28;20963;-51
2022/11/06 08:01:35;;;;;;;6.93;6.20;;;8.50;32.60;;;;;;5029487;28;20458;-51
2022/11/06 08:04:01;;;;;;;7.80;6.40;;;8.00;35.60;;;;;;5026942;28;20486;-52
2022/11/06 08:06:28;;;;;;;7.80;6.20;;;8.00;27.80;;;;;;5025958;28;20491;-52
2022/11/06 08:08:54;;;;;;;9.03;6.13;;;8.30;27.80;;;;;;5029477;28;20529;-52
2022/11/06 08:11:22;;;;;;;11.40;6.47;;;8.00;34.60;;;;;;5028255;28;20463;-52
2022/11/06 08:13:49;;;;;;;11.57;6.67;;;8.30;29.80;;;;;;5028209;28;20568;-52
2022/11/06 08:16:15;;;;;;;7.73;5.80;;;8.60;44.80;;;;;;5027904;28;21030;-52
2022/11/06 08:18:43;;;;;;;10.40;5.97;;;8.80;49.40;;;;;;5029366;28;20486;-51
2022/11/06 08:21:10;;;;;;;8.13;6.27;;;8.90;57.20;;;;;;5024902;28;21224;-51
2022/11/06 08:23:37;;;;;;;9.03;7.30;;;8.90;53.50;;;;;;5028640;28;20539;-51
2022/11/06 08:26:05;;;;;;;9.97;6.13;;;9.30;82.40;;;;;;5028107;28;20502;-51
2022/11/06 08:28:34;;;;;;;14.30;6.50;;;9.60;94.00;;;;;;5029516;28;20463;-51
2022/11/06 08:31:04;;;;;;;11.63;6.40;;;9.90;96.30;;;;;;5026313;28;20501;-51
2022/11/06 08:33:30;;;;;;;9.57;6.80;;;10.50;99.90;;;;;;5031522;28;21222;-52
2022/11/06 08:36:00;;;;;;;6.73;5.70;;;11.10;99.90;;;;;;5029763;28;20459;-51
2022/11/06 08:38:27;;;;;;;11.53;6.00;;;11.80;99.90;;;;;;5029909;28;21011;-51
2022/11/06 08:40:53;;;;;;;8.83;6.23;;;11.60;99.90;;;;;;5027973;28;21038;-51
2022/11/06 08:43:22;;;;;;;6.70;4.93;;;11.80;99.90;;;;;;5029248;28;21066;-51
2022/11/06 08:45:50;;;;;;;8.03;5.43;;;12.00;99.90;;;;;;5028838;28;20562;-52
2022/11/06 08:48:16;;;;;;;6.57;5.30;;;11.40;99.90;;;;;;5031104;28;20463;-52
2022/11/06 08:50:43;;;;;;;5.83;5.10;;;11.50;99.90;;;;;;5031810;28;20969;-51
2022/11/06 08:53:10;;;;;;;6.50;5.70;;;11.60;99.90;;;;;;5026709;28;20560;-52
2022/11/06 08:55:38;;;;;;;5.77;5.17;;;11.20;99.90;;;;;;5025567;28;20483;-52
2022/11/06 08:58:05;;;;;;;9.23;5.73;;;10.90;99.90;;;;;;5028639;28;20496;-51
2022/11/06 09:00:32;;;;;;;9.60;6.00;;;10.60;99.90;;;;;;5023896;28;20497;-52
2022/11/06 09:03:01;;;;;;;10.87;5.90;;;9.70;99.90;;;;;;5031404;28;20518;-52
2022/11/06 09:05:29;;;;;;;6.80;6.00;;;9.60;99.90;;;;;;5029436;28;20475;-51
2022/11/06 09:07:56;;;;;;;9.90;7.60;;;9.40;99.90;;;;;;5028031;28;20464;-52
2022/11/06 09:10:23;;;;;;;11.13;6.40;;;9.20;80.30;;;;;;5029508;28;20483;-52
2022/11/06 09:12:50;;;;;;;6.27;5.60;;;9.20;74.70;;;;;;5029174;28;20878;-51
2022/11/06 09:15:18;;;;;;;7.77;5.57;;;9.00;71.50;;;;;;5028915;28;20979;-51
2022/11/06 09:17:46;;;;;;;13.03;6.07;;;8.90;67.50;;;;;;5028304;28;20466;-51
2022/11/06 09:20:15;;;;;;;12.50;6.43;;;9.00;65.00;;;;;;5030486;28;20544;-51
2022/11/06 09:22:41;;;;;;;7.63;6.30;;;9.60;81.00;;;;;;5029064;28;20490;-51
2022/11/06 09:25:09;;;;;;;7.43;6.23;;;9.90;97.70;;;;;;5025114;28;20519;-51
2022/11/06 09:27:42;;;;;;;7.80;5.97;;;9.80;99.90;;;;;;5016650;28;20470;-51
2022/11/06 09:30:10;;;;;;;8.57;6.37;;;10.10;99.90;;;;;;5025187;28;21037;-52
2022/11/06 09:32:37;;;;;;;6.60;5.23;;;10.60;99.90;;;;;;5027694;28;20455;-53
2022/11/06 09:35:05;;;;;;;8.90;5.83;;;11.30;99.90;;;;;;5025551;28;20578;-52
2022/11/06 09:37:33;;;;;;;6.07;5.40;;;12.80;99.90;;;;;;5028442;28;20523;-51
2022/11/06 09:39:59;;;;;;;6.43;5.40;;;13.70;62.00;;;;;;5025765;28;20552;-51
2022/11/06 09:42:44;;;;;;;9.43;5.93;;;14.80;82.70;;;;;;5027862;28;20482;-51
2022/11/06 09:45:14;;;;;;;10.00;5.97;;;15.20;99.90;;;;;;5024392;28;20486;-51
2022/11/06 09:47:47;;;;;;;10.10;5.20;;;16.40;99.90;;;;;;5024011;28;21082;-51
2022/11/06 09:50:19;;;;;;;11.10;6.10;;;14.90;99.90;;;;;;5029033;28;20495;-51
2022/11/06 09:52:51;;;;;;;5.67;5.10;;;15.50;99.90;;;;;;5027569;28;20462;-51
2022/11/06 09:55:21;;;;;;;8.20;5.03;;;16.60;99.90;;;;;;5028075;28;20636;-52
2022/11/06 09:57:51;;;;;;;11.10;6.23;;;17.30;99.90;;;;;;5030116;28;20463;-52
2022/11/06 10:00:19;;;;;;;7.13;5.73;;;17.20;99.90;;;;;;5028128;28;20540;-53
2022/11/06 10:02:49;;;;;;;8.37;5.50;;;14.70;99.90;;;;;;5027743;28;20462;-51
2022/11/06 10:05:24;;;;;;;7.93;4.70;;;13.20;88.30;;;;;;5016418;28;20488;-51
2022/11/06 10:07:54;;;;;;;7.07;6.03;;;12.90;64.50;;;;;;5026806;28;20543;-51
2022/11/06 10:10:27;;;;;;;8.27;5.50;;;12.20;63.60;;;;;;5029146;28;20908;-52
2022/11/06 10:13:05;;;;;;;7.60;5.40;;;11.80;35.10;;;;;;5029127;28;20491;-51
2022/11/06 10:15:35;;;;;;;9.53;5.30;;;12.10;28.50;;;;;;5030111;28;20572;-51
2022/11/06 10:18:12;;;;;;;6.87;5.37;;;11.80;30.40;;;;;;5026096;28;20975;-53
2022/11/06 10:20:46;;;;;;;6.63;4.93;;;11.90;24.80;;;;;;5022958;28;20467;-52
2022/11/06 10:23:19;;;;;;;8.90;5.80;;;12.00;41.10;;;;;;5025182;28;20582;-52
2022/11/06 10:25:57;;;;;;;8.03;5.37;;;11.50;22.80;;;;;;5022370;28;20610;-51
2022/11/06 10:28:37;;;;;;;6.20;5.17;;;11.40;99.90;;;;;;5027605;28;20454;-52
2022/11/06 10:31:12;;;;;;;10.40;5.77;;;11.50;99.90;;;;;;5027713;28;20492;-52
2022/11/06 10:33:48;;;;;;;5.70;5.07;;;12.60;49.40;;;;;;5031025;28;20496;-52
2022/11/06 10:36:20;;;;;;;10.80;4.70;;;11.80;33.70;;;;;;5032328;28;20446;-52
2022/11/06 10:38:50;;;;;;;6.43;5.37;;;12.00;37.60;;;;;;5021905;28;20491;-51
2022/11/06 10:41:20;;;;;;;7.50;5.13;;;11.90;29.80;;;;;;5040610;22;21584;-59
2022/11/06 10:43:52;;;;;;;5.77;5.20;;;11.50;24.80;;;;;;5048816;28;20513;-58
2022/11/06 10:46:26;;;;;;;5.70;5.13;;;11.50;79.70;;;;;;5044794;28;20454;-58
2022/11/06 10:48:57;;;;;;;8.10;5.67;;;11.40;99.90;;;;;;5048300;28;20490;-58
2022/11/06 10:51:48;;;;;;;9.83;5.17;;;11.40;99.90;;;;;;5040179;28;20479;-60
2022/11/06 10:54:28;;;;;;;8.77;5.60;;;11.40;99.90;;;;;;5027144;28;20491;-57
2022/11/06 10:57:10;;;;;;;7.20;5.90;;;11.40;99.90;;;;;;5028101;28;20520;-57
2022/11/06 10:59:37;;;;;;;14.33;6.27;;;11.00;99.90;;;;;;5027138;28;20516;-58
2022/11/06 11:02:08;;;;;;;7.50;5.50;;;11.20;99.90;;;;;;5024533;28;20898;-58
2022/11/06 11:04:35;;;;;;;11.30;4.63;;;11.40;99.90;;;;;;5030487;28;21065;-59
2022/11/06 11:07:13;;;;;;;7.53;4.97;;;11.70;21.10;;;;;;5029089;28;20482;-59
2022/11/06 11:09:41;;;;;;;9.83;4.90;;;12.70;49.40;;;;;;5029663;28;20538;-58
2022/11/06 11:12:20;;;;;;;7.37;4.60;;;14.00;91.30;;;;;;5030633;28;20837;-59
2022/11/06 11:15:06;;;;;;;6.93;5.00;;;12.50;74.50;;;;;;5030313;28;20459;-59
2022/11/06 11:17:32;;;;;;;7.03;5.00;;;12.90;63.50;;;;;;5028358;28;20895;-59
2022/11/06 11:20:00;;;;;;;4.90;4.37;;;12.90;78.10;;;;;;5030064;28;20478;-58
2022/11/06 11:22:27;;;;;;;5.43;4.83;;;12.30;69.20;;;;;;5030262;28;20478;-59
2022/11/06 11:25:03;;;;;;;5.23;4.67;;;12.20;61.60;;;;;;5023466;28;20483;-58
2022/11/06 11:27:32;;;;;;;6.60;4.00;;;11.70;37.50;;;;;;5029202;28;20478;-58
2022/11/06 11:29:58;;;;;;;8.77;5.40;;;11.60;26.10;;;;;;5025003;28;20491;-59
2022/11/06 11:32:29;;;;;;;9.93;5.30;;;11.30;22.20;;;;;;5030180;28;20565;-58
2022/11/06 11:34:57;;;;;;;6.10;4.77;;;11.20;85.20;;;;;;5030827;28;20443;-59
2022/11/06 11:37:27;;;;;;;7.90;4.43;;;11.20;99.90;;;;;;5026427;28;20494;-59
2022/11/06 11:39:54;;;;;;;5.60;4.30;;;11.20;99.90;;;;;;5025638;28;20494;-58
2022/11/06 11:42:28;;;;;;;6.40;4.20;;;11.20;99.90;;;;;;5023619;28;20542;-58
2022/11/06 11:45:13;;;;;;;6.23;4.70;;;11.30;99.90;;;;;;5029372;28;20899;-58
2022/11/06 11:47:41;;;;;;;4.90;4.30;;;11.30;99.90;;;;;;5029777;28;20974;-59
2022/11/06 11:50:28;;;;;;;6.87;4.67;;;11.30;99.90;;;;;;5028632;28;20471;-59
2022/11/06 11:52:58;;;;;;;8.43;4.13;;;11.40;99.90;;;;;;5027725;28;20479;-59
2022/11/06 11:55:28;;;;;;;8.90;4.60;;;11.90;36.20;;;;;;5028852;28;20490;-59
2022/11/06 11:57:59;;;;;;;4.53;4.13;;;12.20;45.20;;;;;;5027362;28;20447;-59
2022/11/06 12:00:27;;;;;;;8.73;4.80;;;12.60;66.30;;;;;;5030101;28;20557;-59
2022/11/06 12:02:59;;;;;;;7.37;4.80;;;13.00;70.70;;;;;;5030694;28;20486;-58
2022/11/06 12:05:31;;;;;;;5.30;3.80;;;12.70;70.60;;;;;;5030526;28;20541;-59
2022/11/06 12:07:59;;;;;;;5.43;4.10;;;12.70;63.40;;;;;;5024792;28;20495;-59
2022/11/06 12:10:28;;;;;;;8.33;4.47;;;13.40;77.40;;;;;;5030696;28;21002;-55
2022/11/06 12:12:58;;;;;;;6.13;4.00;;;13.10;73.50;;;;;;5026335;28;21062;-58
2022/11/06 12:15:27;;;;;;;10.03;4.23;;;12.90;65.70;;;;;;5028692;28;20962;-59
2022/11/06 12:17:57;;;;;;;6.70;3.87;;;12.90;68.40;;;;;;5025965;28;20473;-58
2022/11/06 12:20:27;;;;;;;4.83;3.97;;;13.30;74.30;;;;;;5024417;28;20501;-58
2022/11/06 12:22:57;;;;;;;5.00;3.33;;;12.80;75.30;;;;;;5029276;28;20976;-58
2022/11/06 12:25:30;;;;;;;4.90;4.20;;;12.70;70.60;;;;;;5033918;28;20486;-57
2022/11/06 12:28:02;;;;;;;7.33;4.17;;;12.50;60.70;;;;;;5032468;28;20462;-58
2022/11/06 12:30:32;;;;;;;14.23;4.40;;;12.40;58.10;;;;;;5028723;28;20567;-59
2022/11/06 12:33:05;;;;;;;5.20;3.70;;;12.30;62.70;;;;;;5027540;28;20478;-58
2022/11/06 12:35:37;;;;;;;4.20;3.80;;;11.90;46.50;;;;;;5025232;28;20459;-58
2022/11/06 12:38:15;;;;;;;4.37;3.60;;;12.70;58.00;;;;;;5035758;28;20459;-59
2022/11/06 12:40:47;;;;;;;4.77;3.93;;;12.80;66.40;;;;;;5051654;28;20442;-59
2022/11/06 12:43:22;;;;;;;4.83;4.00;;;12.40;60.50;;;;;;5050008;28;20486;-58
2022/11/06 12:46:08;;;;;;;4.00;3.70;;;12.80;61.20;;;;;;5048851;28;20470;-58
2022/11/06 12:48:48;;;;;;;8.07;5.37;;;12.80;69.40;;;;;;5043807;28;20498;-58
2022/11/06 12:51:24;;;;;;;11.57;4.17;;;12.30;55.20;;;;;;5029283;28;20929;-59
2022/11/06 12:54:04;;;;;;;9.37;6.40;;;12.10;43.90;;;;;;5031955;28;20523;-56
2022/11/06 12:56:40;;;;;;;4.73;4.23;;;11.70;44.60;;;;;;5030562;28;20540;-58
2022/11/06 12:59:20;;;;;;;5.93;4.57;;;11.70;35.80;;;;;;5027639;28;21050;-58
2022/11/06 13:01:58;;;;;;;4.40;3.80;;;11.60;31.30;;;;;;5027837;28;20478;-58
2022/11/06 13:04:33;;;;;;;4.67;3.63;;;11.70;21.60;;;;;;5030776;28;20568;-59
2022/11/06 13:07:19;;;;;;;9.70;3.60;;;11.90;38.30;;;;;;5031550;28;20528;-57
2022/11/06 13:09:54;;;;;;;5.33;4.20;;;12.10;45.00;;;;;;5029390;28;20486;-56
2022/11/06 13:12:27;;;;;;;4.63;3.40;;;12.10;41.10;;;;;;5027070;28;20521;-57
2022/11/06 13:15:06;;;;;;;5.40;3.17;;;12.70;53.30;;;;;;5030294;28;20490;-58
2022/11/06 13:17:40;;;;;;;3.90;3.47;;;13.90;86.50;;;;;;5030992;28;20524;-58